Gao Xin 16 — 9LY2549 — position and weather

sailwx.info

Track history (hours):
 
Tides and Currents Weather Stations Pressure Air Temp Water Temp Dewpoint Dewpoint Depression Visibility Wind Speed Wind Dir Waves Ship Positions

Gao Xin 16

Last reported at 2017-Sep-29 13:54 UTC. Time now 2017-Oct-20 01:22 UTC.
Position N 34°57' E 139°29'.
Warning: this ship's position is 20 days out of date.

Length 145 m; draft 7 m.

Type: Cargo ship. MMSI: 667003352.

Date/timePositionNaut miles runAvg speedWind from/ knotsBaromVisibWave heightAir tempDewpointWater temp
2017-Sep-29 13:54N 34°57' E 139°29'5 8.4
2017-Sep-29 13:16N 35°01' E 139°34'2 8.9
2017-Sep-29 13:00N 35°02' E 139°35'5 9.7
2017-Sep-29 12:30N 35°06' E 139°40'510.2
2017-Sep-29 12:00N 35°10' E 139°44'5 9.8
2017-Sep-29 11:30N 35°14' E 139°46'510.1
2017-Sep-29 11:00N 35°19' E 139°43'5 9.5
2017-Sep-29 10:30N 35°23' E 139°42'5 9.7
2017-Sep-29 10:00N 35°27' E 139°47'5 9.8
2017-Sep-29 09:30N 35°30' E 139°51'4 8.7
2017-Sep-29 09:01N 35°34' E 139°49'3 3.6
2017-Sep-29 08:17N 35°37' E 139°48'0 0.0
2017-Sep-29 07:56N 35°37' E 139°48'0 0.0
2017-Sep-29 02:44N 35°37' E 139°48'0 0.0
2017-Sep-29 02:11N 35°37' E 139°48'0 0.0
2017-Sep-29 01:08N 35°37' E 139°48'0 0.0
2017-Sep-28 20:53N 35°37' E 139°48'0 0.0
2017-Sep-28 20:20N 35°37' E 139°48'0 0.0
2017-Sep-28 19:56N 35°37' E 139°48'0 0.0
2017-Sep-28 18:50N 35°37' E 139°48'0 0.0
2017-Sep-28 18:08N 35°37' E 139°48'0 0.0
2017-Sep-28 17:44N 35°37' E 139°48'0 0.0
2017-Sep-28 17:14N 35°37' E 139°48'0 0.0
2017-Sep-28 16:44N 35°37' E 139°48'0 0.0
2017-Sep-28 16:26N 35°37' E 139°48'0 0.0
2017-Sep-28 15:56N 35°37' E 139°48'0 0.0
2017-Sep-28 15:14N 35°37' E 139°48'0 0.0
2017-Sep-28 14:50N 35°37' E 139°48'0 0.0
2017-Sep-28 13:56N 35°37' E 139°48'0 0.0
2017-Sep-28 13:26N 35°37' E 139°48'0 0.0
2017-Sep-28 12:53N 35°37' E 139°48'0 0.0
2017-Sep-28 12:26N 35°37' E 139°48'0 0.0
2017-Sep-28 11:44N 35°37' E 139°48'0 0.0
2017-Sep-28 11:26N 35°37' E 139°48'0 0.0
2017-Sep-28 10:20N 35°37' E 139°48'0 0.0
2017-Sep-28 09:50N 35°37' E 139°48'0 0.0
2017-Sep-28 07:26N 35°37' E 139°48'0 0.0
2017-Sep-28 06:08N 35°37' E 139°48'0 0.0
2017-Sep-28 05:38N 35°37' E 139°48'0 0.0
2017-Sep-28 05:29N 35°37' E 139°48'0 0.0
2017-Sep-28 04:56N 35°37' E 139°48'0 0.0
2017-Sep-28 04:29N 35°37' E 139°48'0 0.0
2017-Sep-28 03:59N 35°37' E 139°48'0 0.0
2017-Sep-28 03:26N 35°37' E 139°48'0 0.0
2017-Sep-28 02:53N 35°37' E 139°48'0 0.0
2017-Sep-28 02:29N 35°37' E 139°48'0 0.0
2017-Sep-28 01:59N 35°37' E 139°48'0 0.0
2017-Sep-28 01:29N 35°37' E 139°48'0 0.0
2017-Sep-28 00:56N 35°37' E 139°48'0 0.0
2017-Sep-28 00:29N 35°37' E 139°48'0 0.0
2017-Sep-27 23:47N 35°37' E 139°48'0 0.0
2017-Sep-27 22:41N 35°37' E 139°48'0 0.0
2017-Sep-27 22:20N 35°37' E 139°48'0 0.0
2017-Sep-27 20:20N 35°37' E 139°48'0 0.0
2017-Sep-27 19:56N 35°37' E 139°48'0 0.0
2017-Sep-27 19:26N 35°37' E 139°48'0 0.0
2017-Sep-27 18:50N 35°37' E 139°48'0 0.0
2017-Sep-27 17:44N 35°37' E 139°48'0 0.0
2017-Sep-27 11:44N 35°37' E 139°48'  
2017-Sep-24 19:59N 35°37' E 139°48'  
2017-Sep-21 22:56N 35°37' E 139°48'0 0.0
2017-Sep-21 22:20N 35°37' E 139°48'0 0.0
2017-Sep-21 21:56N 35°37' E 139°48'0 0.0
2017-Sep-21 21:20N 35°37' E 139°48'0 0.0
2017-Sep-21 19:44N 35°37' E 139°48'0 0.0
2017-Sep-21 19:26N 35°37' E 139°48'0 0.0
2017-Sep-21 17:02N 35°37' E 139°48'0 0.0
2017-Sep-21 16:50N 35°37' E 139°48'0 0.0
2017-Sep-21 16:26N 35°37' E 139°48'0 0.0
2017-Sep-21 15:50N 35°37' E 139°48'0 0.0
2017-Sep-21 15:20N 35°37' E 139°48'0 0.0
2017-Sep-21 14:50N 35°37' E 139°48'0 0.0
2017-Sep-21 14:20N 35°37' E 139°48'0 0.0
2017-Sep-21 13:56N 35°37' E 139°48'0 0.0
2017-Sep-21 10:50N 35°37' E 139°48'0 0.0
2017-Sep-21 05:02N 35°37' E 139°48'0 0.0
2017-Sep-21 04:53N 35°37' E 139°48'1 1.9
2017-Sep-21 04:30N 35°36' E 139°47'3 5.8
2017-Sep-21 04:00N 35°34' E 139°50'5 9.4
2017-Sep-21 03:30N 35°29' E 139°52'510.5
2017-Sep-21 03:00N 35°26' E 139°48'610.8
2017-Sep-21 02:30N 35°21' E 139°45'5 9.6
2017-Sep-21 01:56N 35°15' E 139°47'410.4
2017-Sep-21 01:30N 35°11' E 139°47'510.5
2017-Sep-21 01:00N 35°06' E 139°44'5 9.5
2017-Sep-21 00:30N 35°02' E 139°41'3 5.9
2017-Sep-20 23:59N 35°00' E 139°38'3 7.1
2017-Sep-20 23:30N 34°58' E 139°35'  
Track history (hours):
 
Tides and Currents Weather Stations Pressure Air Temp Water Temp Dewpoint Dewpoint Depression Visibility Wind Speed Wind Dir Waves Ship Positions

Gao Xin 16

Last reported at 2017-Sep-29 13:54 UTC. Time now 2017-Oct-20 01:22 UTC.
Position N 34°57' E 139°29'.
Warning: this ship's position is 20 days out of date.

Length 145 m; draft 7 m.

Type: Cargo ship. MMSI: 667003352.

Date/timePositionNaut miles runAvg speedWind from/ knotsBaromVisibWave heightAir tempDewpointWater temp
2017-Sep-29 13:54N 34°57' E 139°29'5 8.4
2017-Sep-29 13:16N 35°01' E 139°34'2 8.9
2017-Sep-29 13:00N 35°02' E 139°35'5 9.7
2017-Sep-29 12:30N 35°06' E 139°40'510.2
2017-Sep-29 12:00N 35°10' E 139°44'5 9.8
2017-Sep-29 11:30N 35°14' E 139°46'510.1
2017-Sep-29 11:00N 35°19' E 139°43'5 9.5
2017-Sep-29 10:30N 35°23' E 139°42'5 9.7
2017-Sep-29 10:00N 35°27' E 139°47'5 9.8
2017-Sep-29 09:30N 35°30' E 139°51'4 8.7
2017-Sep-29 09:01N 35°34' E 139°49'3 3.6
2017-Sep-29 08:17N 35°37' E 139°48'0 0.0
2017-Sep-29 07:56N 35°37' E 139°48'0 0.0
2017-Sep-29 02:44N 35°37' E 139°48'0 0.0
2017-Sep-29 02:11N 35°37' E 139°48'0 0.0
2017-Sep-29 01:08N 35°37' E 139°48'0 0.0
2017-Sep-28 20:53N 35°37' E 139°48'0 0.0
2017-Sep-28 20:20N 35°37' E 139°48'0 0.0
2017-Sep-28 19:56N 35°37' E 139°48'0 0.0
2017-Sep-28 18:50N 35°37' E 139°48'0 0.0
2017-Sep-28 18:08N 35°37' E 139°48'0 0.0
2017-Sep-28 17:44N 35°37' E 139°48'0 0.0
2017-Sep-28 17:14N 35°37' E 139°48'0 0.0
2017-Sep-28 16:44N 35°37' E 139°48'0 0.0
2017-Sep-28 16:26N 35°37' E 139°48'0 0.0
2017-Sep-28 15:56N 35°37' E 139°48'0 0.0
2017-Sep-28 15:14N 35°37' E 139°48'0 0.0
2017-Sep-28 14:50N 35°37' E 139°48'0 0.0
2017-Sep-28 13:56N 35°37' E 139°48'0 0.0
2017-Sep-28 13:26N 35°37' E 139°48'0 0.0
2017-Sep-28 12:53N 35°37' E 139°48'0 0.0
2017-Sep-28 12:26N 35°37' E 139°48'0 0.0
2017-Sep-28 11:44N 35°37' E 139°48'0 0.0
2017-Sep-28 11:26N 35°37' E 139°48'0 0.0
2017-Sep-28 10:20N 35°37' E 139°48'0 0.0
2017-Sep-28 09:50N 35°37' E 139°48'0 0.0
2017-Sep-28 07:26N 35°37' E 139°48'0 0.0
2017-Sep-28 06:08N 35°37' E 139°48'0 0.0
2017-Sep-28 05:38N 35°37' E 139°48'0 0.0
2017-Sep-28 05:29N 35°37' E 139°48'0 0.0
2017-Sep-28 04:56N 35°37' E 139°48'0 0.0
2017-Sep-28 04:29N 35°37' E 139°48'0 0.0
2017-Sep-28 03:59N 35°37' E 139°48'0 0.0
2017-Sep-28 03:26N 35°37' E 139°48'0 0.0
2017-Sep-28 02:53N 35°37' E 139°48'0 0.0
2017-Sep-28 02:29N 35°37' E 139°48'0 0.0
2017-Sep-28 01:59N 35°37' E 139°48'0 0.0
2017-Sep-28 01:29N 35°37' E 139°48'0 0.0
2017-Sep-28 00:56N 35°37' E 139°48'0 0.0
2017-Sep-28 00:29N 35°37' E 139°48'0 0.0
2017-Sep-27 23:47N 35°37' E 139°48'0 0.0
2017-Sep-27 22:41N 35°37' E 139°48'0 0.0
2017-Sep-27 22:20N 35°37' E 139°48'0 0.0
2017-Sep-27 20:20N 35°37' E 139°48'0 0.0
2017-Sep-27 19:56N 35°37' E 139°48'0 0.0
2017-Sep-27 19:26N 35°37' E 139°48'0 0.0
2017-Sep-27 18:50N 35°37' E 139°48'0 0.0
2017-Sep-27 17:44N 35°37' E 139°48'0 0.0
2017-Sep-27 11:44N 35°37' E 139°48'  
2017-Sep-24 19:59N 35°37' E 139°48'  
2017-Sep-21 22:56N 35°37' E 139°48'0 0.0
2017-Sep-21 22:20N 35°37' E 139°48'0 0.0
2017-Sep-21 21:56N 35°37' E 139°48'0 0.0
2017-Sep-21 21:20N 35°37' E 139°48'0 0.0
2017-Sep-21 19:44N 35°37' E 139°48'0 0.0
2017-Sep-21 19:26N 35°37' E 139°48'0 0.0
2017-Sep-21 17:02N 35°37' E 139°48'0 0.0
2017-Sep-21 16:50N 35°37' E 139°48'0 0.0
2017-Sep-21 16:26N 35°37' E 139°48'0 0.0
2017-Sep-21 15:50N 35°37' E 139°48'0 0.0
2017-Sep-21 15:20N 35°37' E 139°48'0 0.0
2017-Sep-21 14:50N 35°37' E 139°48'0 0.0
2017-Sep-21 14:20N 35°37' E 139°48'0 0.0
2017-Sep-21 13:56N 35°37' E 139°48'0 0.0
2017-Sep-21 10:50N 35°37' E 139°48'0 0.0
2017-Sep-21 05:02N 35°37' E 139°48'0 0.0
2017-Sep-21 04:53N 35°37' E 139°48'1 1.9
2017-Sep-21 04:30N 35°36' E 139°47'3 5.8
2017-Sep-21 04:00N 35°34' E 139°50'5 9.4
2017-Sep-21 03:30N 35°29' E 139°52'510.5
2017-Sep-21 03:00N 35°26' E 139°48'610.8
2017-Sep-21 02:30N 35°21' E 139°45'5 9.6
2017-Sep-21 01:56N 35°15' E 139°47'410.4
2017-Sep-21 01:30N 35°11' E 139°47'510.5
2017-Sep-21 01:00N 35°06' E 139°44'5 9.5
2017-Sep-21 00:30N 35°02' E 139°41'3 5.9
2017-Sep-20 23:59N 35°00' E 139°38'3 7.1
2017-Sep-20 23:30N 34°58' E 139°35'  

Dump ship's entire track history